sensor_id;sensor_type;location;lat;lon;timestamp;P1;durP1;ratioP1;P2;durP2;ratioP2
12719;SDS011;6424;48.520;11.228;2023-02-17T00:00:48;12.00;;;8.60;;
12719;SDS011;6424;48.520;11.228;2023-02-17T00:03:13;11.07;;;7.90;;
12719;SDS011;6424;48.520;11.228;2023-02-17T00:05:54;12.47;;;8.00;;
12719;SDS011;6424;48.520;11.228;2023-02-17T00:08:35;13.17;;;7.90;;
12719;SDS011;6424;48.520;11.228;2023-02-17T00:11:16;11.07;;;8.43;;
12719;SDS011;6424;48.520;11.228;2023-02-17T00:13:42;11.70;;;8.40;;
12719;SDS011;6424;48.520;11.228;2023-02-17T00:16:24;15.53;;;8.53;;
12719;SDS011;6424;48.520;11.228;2023-02-17T00:19:06;13.17;;;8.13;;
12719;SDS011;6424;48.520;11.228;2023-02-17T00:22:02;11.27;;;8.03;;
12719;SDS011;6424;48.520;11.228;2023-02-17T00:24:43;11.77;;;7.77;;
12719;SDS011;6424;48.520;11.228;2023-02-17T00:27:24;12.10;;;7.77;;
12719;SDS011;6424;48.520;11.228;2023-02-17T00:30:05;11.20;;;8.07;;
12719;SDS011;6424;48.520;11.228;2023-02-17T00:32:46;11.93;;;8.00;;
12719;SDS011;6424;48.520;11.228;2023-02-17T00:35:27;12.67;;;8.27;;
12719;SDS011;6424;48.520;11.228;2023-02-17T00:38:08;11.67;;;8.20;;
12719;SDS011;6424;48.520;11.228;2023-02-17T00:40:49;10.43;;;7.93;;
12719;SDS011;6424;48.520;11.228;2023-02-17T00:43:30;11.23;;;7.93;;
12719;SDS011;6424;48.520;11.228;2023-02-17T00:45:55;12.87;;;8.43;;
12719;SDS011;6424;48.520;11.228;2023-02-17T00:48:36;12.30;;;7.80;;
12719;SDS011;6424;48.520;11.228;2023-02-17T00:51:17;10.80;;;7.77;;
12719;SDS011;6424;48.520;11.228;2023-02-17T00:53:58;10.13;;;7.70;;
12719;SDS011;6424;48.520;11.228;2023-02-17T00:56:39;10.23;;;7.97;;
12719;SDS011;6424;48.520;11.228;2023-02-17T00:59:20;13.23;;;8.47;;
12719;SDS011;6424;48.520;11.228;2023-02-17T01:02:01;9.77;;;7.70;;
12719;SDS011;6424;48.520;11.228;2023-02-17T01:04:42;9.97;;;7.57;;
12719;SDS011;6424;48.520;11.228;2023-02-17T01:07:23;13.50;;;8.73;;
12719;SDS011;6424;48.520;11.228;2023-02-17T01:10:04;11.23;;;8.13;;
12719;SDS011;6424;48.520;11.228;2023-02-17T01:12:45;11.10;;;7.90;;
12719;SDS011;6424;48.520;11.228;2023-02-17T01:15:26;12.27;;;7.97;;
12719;SDS011;6424;48.520;11.228;2023-02-17T01:18:07;11.30;;;8.03;;
12719;SDS011;6424;48.520;11.228;2023-02-17T01:20:48;9.73;;;7.33;;
12719;SDS011;6424;48.520;11.228;2023-02-17T01:23:28;11.37;;;7.33;;
12719;SDS011;6424;48.520;11.228;2023-02-17T01:26:13;11.47;;;7.73;;
12719;SDS011;6424;48.520;11.228;2023-02-17T01:28:55;9.83;;;7.07;;
12719;SDS011;6424;48.520;11.228;2023-02-17T01:31:36;11.33;;;7.83;;
12719;SDS011;6424;48.520;11.228;2023-02-17T01:34:18;9.83;;;7.27;;
12719;SDS011;6424;48.520;11.228;2023-02-17T01:36:59;13.07;;;7.67;;
12719;SDS011;6424;48.520;11.228;2023-02-17T01:39:40;10.57;;;6.37;;
12719;SDS011;6424;48.520;11.228;2023-02-17T01:42:20;11.87;;;7.10;;
12719;SDS011;6424;48.520;11.228;2023-02-17T01:48:05;9.23;;;6.63;;
12719;SDS011;6424;48.520;11.228;2023-02-17T01:50:57;9.87;;;7.23;;
12719;SDS011;6424;48.520;11.228;2023-02-17T01:53:43;9.30;;;7.07;;
12719;SDS011;6424;48.520;11.228;2023-02-17T01:56:41;9.63;;;7.00;;
12719;SDS011;6424;48.520;11.228;2023-02-17T01:59:24;10.03;;;6.60;;
12719;SDS011;6424;48.520;11.228;2023-02-17T02:02:05;9.93;;;6.53;;
12719;SDS011;6424;48.520;11.228;2023-02-17T02:04:47;10.13;;;6.73;;
12719;SDS011;6424;48.520;11.228;2023-02-17T02:07:32;10.27;;;6.63;;
12719;SDS011;6424;48.520;11.228;2023-02-17T02:10:16;13.33;;;7.30;;
12719;SDS011;6424;48.520;11.228;2023-02-17T02:12:59;11.17;;;6.67;;
12719;SDS011;6424;48.520;11.228;2023-02-17T02:15:45;9.13;;;6.57;;
12719;SDS011;6424;48.520;11.228;2023-02-17T02:18:55;10.63;;;6.97;;
12719;SDS011;6424;48.520;11.228;2023-02-17T02:37:16;8.27;;;6.13;;
12719;SDS011;6424;48.520;11.228;2023-02-17T02:40:13;7.90;;;6.10;;
12719;SDS011;6424;48.520;11.228;2023-02-17T02:42:56;9.43;;;5.90;;
12719;SDS011;6424;48.520;11.228;2023-02-17T02:45:39;9.23;;;6.37;;
12719;SDS011;6424;48.520;11.228;2023-02-17T02:48:20;8.27;;;6.00;;
12719;SDS011;6424;48.520;11.228;2023-02-17T02:53:51;7.60;;;5.37;;
12719;SDS011;6424;48.520;11.228;2023-02-17T02:59:42;8.50;;;5.30;;
12719;SDS011;6424;48.520;11.228;2023-02-17T03:02:28;8.70;;;5.27;;
12719;SDS011;6424;48.520;11.228;2023-02-17T03:11:17;8.30;;;5.00;;
12719;SDS011;6424;48.520;11.228;2023-02-17T03:14:15;8.13;;;5.50;;
12719;SDS011;6424;48.520;11.228;2023-02-17T03:16:57;7.70;;;4.47;;
12719;SDS011;6424;48.520;11.228;2023-02-17T03:19:38;7.20;;;4.73;;
12719;SDS011;6424;48.520;11.228;2023-02-17T03:22:27;7.27;;;4.73;;
12719;SDS011;6424;48.520;11.228;2023-02-17T03:25:12;7.33;;;5.20;;
12719;SDS011;6424;48.520;11.228;2023-02-17T03:27:54;6.70;;;4.47;;
12719;SDS011;6424;48.520;11.228;2023-02-17T03:30:35;8.00;;;4.90;;
12719;SDS011;6424;48.520;11.228;2023-02-17T03:33:17;5.93;;;4.80;;
12719;SDS011;6424;48.520;11.228;2023-02-17T03:35:57;7.87;;;4.40;;
12719;SDS011;6424;48.520;11.228;2023-02-17T03:38:38;7.83;;;4.60;;
12719;SDS011;6424;48.520;11.228;2023-02-17T03:41:19;7.00;;;4.70;;
12719;SDS011;6424;48.520;11.228;2023-02-17T03:44:00;7.40;;;4.37;;
12719;SDS011;6424;48.520;11.228;2023-02-17T03:46:41;8.83;;;4.83;;
12719;SDS011;6424;48.520;11.228;2023-02-17T03:49:21;7.67;;;5.03;;
12719;SDS011;6424;48.520;11.228;2023-02-17T03:52:02;7.87;;;4.77;;
12719;SDS011;6424;48.520;11.228;2023-02-17T03:54:43;6.83;;;4.77;;
12719;SDS011;6424;48.520;11.228;2023-02-17T03:57:09;9.27;;;4.90;;
12719;SDS011;6424;48.520;11.228;2023-02-17T03:59:50;6.33;;;4.43;;
12719;SDS011;6424;48.520;11.228;2023-02-17T04:02:31;7.03;;;4.33;;
12719;SDS011;6424;48.520;11.228;2023-02-17T04:05:11;6.93;;;4.47;;
12719;SDS011;6424;48.520;11.228;2023-02-17T04:07:52;10.43;;;5.67;;
12719;SDS011;6424;48.520;11.228;2023-02-17T04:10:33;12.47;;;7.47;;
12719;SDS011;6424;48.520;11.228;2023-02-17T04:12:59;8.37;;;4.77;;
12719;SDS011;6424;48.520;11.228;2023-02-17T04:15:39;9.23;;;4.43;;
12719;SDS011;6424;48.520;11.228;2023-02-17T04:18:20;8.00;;;4.53;;
12719;SDS011;6424;48.520;11.228;2023-02-17T04:21:02;7.87;;;4.37;;
12719;SDS011;6424;48.520;11.228;2023-02-17T04:23:43;7.40;;;4.97;;
12719;SDS011;6424;48.520;11.228;2023-02-17T04:26:24;7.97;;;4.30;;
12719;SDS011;6424;48.520;11.228;2023-02-17T04:29:05;7.73;;;4.77;;
12719;SDS011;6424;48.520;11.228;2023-02-17T04:31:46;6.90;;;5.00;;
12719;SDS011;6424;48.520;11.228;2023-02-17T04:34:26;6.83;;;4.83;;
12719;SDS011;6424;48.520;11.228;2023-02-17T04:37:07;8.90;;;4.83;;
12719;SDS011;6424;48.520;11.228;2023-02-17T04:39:48;6.97;;;4.73;;
12719;SDS011;6424;48.520;11.228;2023-02-17T04:42:29;6.90;;;4.50;;
12719;SDS011;6424;48.520;11.228;2023-02-17T04:45:10;8.03;;;5.33;;
12719;SDS011;6424;48.520;11.228;2023-02-17T04:47:51;7.80;;;4.90;;
12719;SDS011;6424;48.520;11.228;2023-02-17T04:50:32;12.27;;;5.13;;
12719;SDS011;6424;48.520;11.228;2023-02-17T04:53:13;8.60;;;4.67;;
12719;SDS011;6424;48.520;11.228;2023-02-17T04:55:54;6.30;;;4.67;;
12719;SDS011;6424;48.520;11.228;2023-02-17T04:58:35;9.23;;;4.93;;
12719;SDS011;6424;48.520;11.228;2023-02-17T05:01:16;8.27;;;5.00;;
12719;SDS011;6424;48.520;11.228;2023-02-17T05:03:57;7.67;;;4.73;;
12719;SDS011;6424;48.520;11.228;2023-02-17T05:06:37;8.80;;;5.47;;
12719;SDS011;6424;48.520;11.228;2023-02-17T05:09:18;8.80;;;4.73;;
12719;SDS011;6424;48.520;11.228;2023-02-17T05:11:59;8.63;;;4.67;;
12719;SDS011;6424;48.520;11.228;2023-02-17T05:14:42;6.97;;;4.63;;
12719;SDS011;6424;48.520;11.228;2023-02-17T05:17:22;7.30;;;4.43;;
12719;SDS011;6424;48.520;11.228;2023-02-17T05:20:04;7.07;;;4.23;;
12719;SDS011;6424;48.520;11.228;2023-02-17T05:22:45;7.20;;;4.20;;
12719;SDS011;6424;48.520;11.228;2023-02-17T05:25:26;6.63;;;4.70;;
12719;SDS011;6424;48.520;11.228;2023-02-17T05:28:07;5.87;;;4.20;;
12719;SDS011;6424;48.520;11.228;2023-02-17T05:30:48;8.27;;;5.00;;
12719;SDS011;6424;48.520;11.228;2023-02-17T05:33:14;7.50;;;5.17;;
12719;SDS011;6424;48.520;11.228;2023-02-17T05:35:55;9.60;;;6.40;;
12719;SDS011;6424;48.520;11.228;2023-02-17T05:38:40;7.57;;;5.93;;
12719;SDS011;6424;48.520;11.228;2023-02-17T05:41:21;11.67;;;8.00;;
12719;SDS011;6424;48.520;11.228;2023-02-17T05:44:01;11.47;;;5.87;;
12719;SDS011;6424;48.520;11.228;2023-02-17T05:46:42;8.63;;;5.60;;
12719;SDS011;6424;48.520;11.228;2023-02-17T05:49:23;7.97;;;4.90;;
12719;SDS011;6424;48.520;11.228;2023-02-17T05:52:04;8.33;;;4.63;;
12719;SDS011;6424;48.520;11.228;2023-02-17T05:54:45;9.53;;;4.77;;
12719;SDS011;6424;48.520;11.228;2023-02-17T05:57:26;6.20;;;4.53;;
12719;SDS011;6424;48.520;11.228;2023-02-17T06:00:07;7.43;;;4.53;;
12719;SDS011;6424;48.520;11.228;2023-02-17T06:02:48;8.83;;;5.23;;
12719;SDS011;6424;48.520;11.228;2023-02-17T06:05:29;8.00;;;4.60;;
12719;SDS011;6424;48.520;11.228;2023-02-17T06:08:10;8.23;;;4.73;;
12719;SDS011;6424;48.520;11.228;2023-02-17T06:10:54;7.77;;;4.70;;
12719;SDS011;6424;48.520;11.228;2023-02-17T06:13:35;7.43;;;4.87;;
12719;SDS011;6424;48.520;11.228;2023-02-17T06:16:16;6.83;;;4.70;;
12719;SDS011;6424;48.520;11.228;2023-02-17T06:18:57;8.47;;;4.47;;
12719;SDS011;6424;48.520;11.228;2023-02-17T06:21:39;7.40;;;4.93;;
12719;SDS011;6424;48.520;11.228;2023-02-17T06:24:20;8.37;;;4.83;;
12719;SDS011;6424;48.520;11.228;2023-02-17T06:27:00;6.90;;;4.67;;
12719;SDS011;6424;48.520;11.228;2023-02-17T06:29:41;7.10;;;5.07;;
12719;SDS011;6424;48.520;11.228;2023-02-17T06:32:07;7.13;;;4.67;;
12719;SDS011;6424;48.520;11.228;2023-02-17T06:34:48;7.33;;;4.43;;
12719;SDS011;6424;48.520;11.228;2023-02-17T06:37:14;7.60;;;4.70;;
12719;SDS011;6424;48.520;11.228;2023-02-17T06:39:40;8.03;;;5.17;;
12719;SDS011;6424;48.520;11.228;2023-02-17T06:42:21;8.43;;;4.57;;
12719;SDS011;6424;48.520;11.228;2023-02-17T06:45:02;10.37;;;5.10;;
12719;SDS011;6424;48.520;11.228;2023-02-17T06:47:45;9.57;;;4.87;;
12719;SDS011;6424;48.520;11.228;2023-02-17T06:50:25;6.47;;;4.57;;
12719;SDS011;6424;48.520;11.228;2023-02-17T06:53:06;7.20;;;5.03;;
12719;SDS011;6424;48.520;11.228;2023-02-17T06:55:47;6.93;;;4.67;;
12719;SDS011;6424;48.520;11.228;2023-02-17T06:58:28;7.43;;;4.57;;
12719;SDS011;6424;48.520;11.228;2023-02-17T07:00:54;7.57;;;4.70;;
12719;SDS011;6424;48.520;11.228;2023-02-17T07:03:35;7.87;;;5.00;;
12719;SDS011;6424;48.520;11.228;2023-02-17T07:06:15;6.57;;;4.63;;
12719;SDS011;6424;48.520;11.228;2023-02-17T07:08:41;7.30;;;4.37;;
12719;SDS011;6424;48.520;11.228;2023-02-17T07:11:22;13.03;;;8.13;;
12719;SDS011;6424;48.520;11.228;2023-02-17T07:14:03;9.50;;;7.03;;
12719;SDS011;6424;48.520;11.228;2023-02-17T07:16:29;10.77;;;7.30;;
12719;SDS011;6424;48.520;11.228;2023-02-17T07:19:10;11.23;;;6.30;;
12719;SDS011;6424;48.520;11.228;2023-02-17T07:21:50;15.30;;;9.73;;
12719;SDS011;6424;48.520;11.228;2023-02-17T07:24:31;10.43;;;6.20;;
12719;SDS011;6424;48.520;11.228;2023-02-17T07:26:58;7.17;;;4.87;;
12719;SDS011;6424;48.520;11.228;2023-02-17T07:29:39;6.20;;;3.93;;
12719;SDS011;6424;48.520;11.228;2023-02-17T07:32:20;7.15;;;4.80;;
12719;SDS011;6424;48.520;11.228;2023-02-17T07:35:01;6.53;;;4.40;;
12719;SDS011;6424;48.520;11.228;2023-02-17T07:37:42;7.17;;;4.00;;
12719;SDS011;6424;48.520;11.228;2023-02-17T07:40:08;7.23;;;4.43;;
12719;SDS011;6424;48.520;11.228;2023-02-17T07:42:49;7.80;;;4.17;;
12719;SDS011;6424;48.520;11.228;2023-02-17T07:45:30;9.17;;;4.67;;
12719;SDS011;6424;48.520;11.228;2023-02-17T07:48:11;8.50;;;4.60;;
12719;SDS011;6424;48.520;11.228;2023-02-17T07:50:51;5.90;;;3.77;;
12719;SDS011;6424;48.520;11.228;2023-02-17T07:53:33;8.30;;;4.77;;
12719;SDS011;6424;48.520;11.228;2023-02-17T07:56:15;8.53;;;4.43;;
12719;SDS011;6424;48.520;11.228;2023-02-17T07:58:56;9.77;;;4.87;;
12719;SDS011;6424;48.520;11.228;2023-02-17T08:01:37;8.23;;;4.53;;
12719;SDS011;6424;48.520;11.228;2023-02-17T08:04:18;7.50;;;4.20;;
12719;SDS011;6424;48.520;11.228;2023-02-17T08:06:59;8.50;;;5.23;;
12719;SDS011;6424;48.520;11.228;2023-02-17T08:09:40;8.90;;;4.57;;
12719;SDS011;6424;48.520;11.228;2023-02-17T08:12:39;7.23;;;5.20;;
12719;SDS011;6424;48.520;11.228;2023-02-17T08:15:38;8.43;;;5.20;;
12719;SDS011;6424;48.520;11.228;2023-02-17T08:18:20;11.57;;;6.70;;
12719;SDS011;6424;48.520;11.228;2023-02-17T08:21:01;5.93;;;4.87;;
12719;SDS011;6424;48.520;11.228;2023-02-17T08:23:41;7.97;;;4.50;;
12719;SDS011;6424;48.520;11.228;2023-02-17T08:26:22;8.67;;;4.50;;
12719;SDS011;6424;48.520;11.228;2023-02-17T08:29:04;7.77;;;4.17;;
12719;SDS011;6424;48.520;11.228;2023-02-17T08:31:45;7.17;;;4.77;;
12719;SDS011;6424;48.520;11.228;2023-02-17T08:34:25;7.03;;;3.80;;
12719;SDS011;6424;48.520;11.228;2023-02-17T08:36:52;7.83;;;4.47;;
12719;SDS011;6424;48.520;11.228;2023-02-17T08:39:33;6.13;;;4.40;;
12719;SDS011;6424;48.520;11.228;2023-02-17T08:42:00;7.20;;;4.40;;
12719;SDS011;6424;48.520;11.228;2023-02-17T08:44:41;6.13;;;4.43;;
12719;SDS011;6424;48.520;11.228;2023-02-17T08:47:21;5.53;;;3.77;;
12719;SDS011;6424;48.520;11.228;2023-02-17T08:50:03;7.43;;;4.40;;
12719;SDS011;6424;48.520;11.228;2023-02-17T08:52:30;7.83;;;4.50;;
12719;SDS011;6424;48.520;11.228;2023-02-17T08:55:11;9.70;;;4.50;;
12719;SDS011;6424;48.520;11.228;2023-02-17T08:57:37;5.57;;;3.57;;
12719;SDS011;6424;48.520;11.228;2023-02-17T09:00:17;4.83;;;3.90;;
12719;SDS011;6424;48.520;11.228;2023-02-17T09:02:58;8.13;;;3.67;;
12719;SDS011;6424;48.520;11.228;2023-02-17T09:05:39;6.93;;;3.67;;
12719;SDS011;6424;48.520;11.228;2023-02-17T09:08:05;4.83;;;3.83;;
12719;SDS011;6424;48.520;11.228;2023-02-17T09:10:46;6.50;;;3.60;;
12719;SDS011;6424;48.520;11.228;2023-02-17T09:13:26;7.07;;;3.90;;
12719;SDS011;6424;48.520;11.228;2023-02-17T09:16:07;6.10;;;3.57;;
12719;SDS011;6424;48.520;11.228;2023-02-17T09:18:50;5.23;;;3.57;;
12719;SDS011;6424;48.520;11.228;2023-02-17T09:21:31;5.87;;;3.97;;
12719;SDS011;6424;48.520;11.228;2023-02-17T09:24:13;11.07;;;4.20;;
12719;SDS011;6424;48.520;11.228;2023-02-17T09:26:54;7.17;;;3.63;;
12719;SDS011;6424;48.520;11.228;2023-02-17T09:29:38;6.47;;;3.60;;
12719;SDS011;6424;48.520;11.228;2023-02-17T09:32:19;7.17;;;4.10;;
12719;SDS011;6424;48.520;11.228;2023-02-17T09:35:00;5.10;;;3.83;;
12719;SDS011;6424;48.520;11.228;2023-02-17T09:37:30;6.70;;;4.30;;
12719;SDS011;6424;48.520;11.228;2023-02-17T09:40:14;5.47;;;3.50;;
12719;SDS011;6424;48.520;11.228;2023-02-17T09:43:24;6.73;;;3.50;;
12719;SDS011;6424;48.520;11.228;2023-02-17T09:46:09;5.00;;;3.27;;
12719;SDS011;6424;48.520;11.228;2023-02-17T09:48:41;5.53;;;3.33;;
12719;SDS011;6424;48.520;11.228;2023-02-17T09:57:22;7.40;;;3.13;;
12719;SDS011;6424;48.520;11.228;2023-02-17T10:00:11;5.80;;;2.90;;
12719;SDS011;6424;48.520;11.228;2023-02-17T10:03:08;11.30;;;5.70;;
12719;SDS011;6424;48.520;11.228;2023-02-17T10:08:47;5.53;;;3.00;;
12719;SDS011;6424;48.520;11.228;2023-02-17T10:12:16;5.27;;;3.10;;
12719;SDS011;6424;48.520;11.228;2023-02-17T10:15:17;4.37;;;3.10;;
12719;SDS011;6424;48.520;11.228;2023-02-17T10:18:13;6.13;;;3.27;;
12719;SDS011;6424;48.520;11.228;2023-02-17T10:23:48;4.47;;;3.00;;
12719;SDS011;6424;48.520;11.228;2023-02-17T10:26:41;4.53;;;2.83;;
12719;SDS011;6424;48.520;11.228;2023-02-17T10:29:29;5.63;;;3.03;;
12719;SDS011;6424;48.520;11.228;2023-02-17T10:32:27;4.53;;;3.40;;
12719;SDS011;6424;48.520;11.228;2023-02-17T10:35:13;5.47;;;2.83;;
12719;SDS011;6424;48.520;11.228;2023-02-17T10:40:40;6.20;;;3.00;;
12719;SDS011;6424;48.520;11.228;2023-02-17T10:43:23;7.20;;;3.43;;
12719;SDS011;6424;48.520;11.228;2023-02-17T10:46:06;5.43;;;3.03;;
12719;SDS011;6424;48.520;11.228;2023-02-17T10:48:51;6.63;;;3.20;;
12719;SDS011;6424;48.520;11.228;2023-02-17T10:51:33;4.63;;;3.40;;
12719;SDS011;6424;48.520;11.228;2023-02-17T10:57:14;6.43;;;3.30;;
12719;SDS011;6424;48.520;11.228;2023-02-17T10:59:57;8.83;;;3.27;;
12719;SDS011;6424;48.520;11.228;2023-02-17T11:02:39;34.13;;;22.23;;
12719;SDS011;6424;48.520;11.228;2023-02-17T11:05:29;4.47;;;2.83;;
12719;SDS011;6424;48.520;11.228;2023-02-17T11:14:23;5.60;;;2.90;;
12719;SDS011;6424;48.520;11.228;2023-02-17T11:17:12;4.63;;;2.90;;
12719;SDS011;6424;48.520;11.228;2023-02-17T11:19:54;5.17;;;2.97;;
12719;SDS011;6424;48.520;11.228;2023-02-17T11:28:06;4.83;;;3.10;;
12719;SDS011;6424;48.520;11.228;2023-02-17T11:30:53;5.10;;;3.23;;
12719;SDS011;6424;48.520;11.228;2023-02-17T11:33:37;7.47;;;3.00;;
12719;SDS011;6424;48.520;11.228;2023-02-17T11:36:22;5.53;;;2.90;;
12719;SDS011;6424;48.520;11.228;2023-02-17T11:39:18;2.93;;;2.53;;
12719;SDS011;6424;48.520;11.228;2023-02-17T11:42:00;5.00;;;3.17;;
12719;SDS011;6424;48.520;11.228;2023-02-17T11:44:26;4.60;;;2.73;;
12719;SDS011;6424;48.520;11.228;2023-02-17T11:47:11;4.10;;;3.13;;
12719;SDS011;6424;48.520;11.228;2023-02-17T11:54:17;4.63;;;3.03;;
12719;SDS011;6424;48.520;11.228;2023-02-17T11:56:40;7.00;;;4.67;;
12719;SDS011;6424;48.520;11.228;2023-02-17T12:02:10;7.67;;;3.83;;
12719;SDS011;6424;48.520;11.228;2023-02-17T12:13:48;4.87;;;3.20;;
12719;SDS011;6424;48.520;11.228;2023-02-17T12:33:21;7.83;;;4.33;;
12719;SDS011;6424;48.520;11.228;2023-02-17T12:36:11;4.83;;;4.00;;
12719;SDS011;6424;48.520;11.228;2023-02-17T12:39:01;4.87;;;3.63;;
12719;SDS011;6424;48.520;11.228;2023-02-17T12:42:03;7.17;;;4.00;;
12719;SDS011;6424;48.520;11.228;2023-02-17T12:45:02;5.83;;;4.10;;
12719;SDS011;6424;48.520;11.228;2023-02-17T12:50:39;5.27;;;3.73;;
12719;SDS011;6424;48.520;11.228;2023-02-17T12:53:37;6.10;;;3.50;;
12719;SDS011;6424;48.520;11.228;2023-02-17T12:59:10;8.03;;;4.00;;
12719;SDS011;6424;48.520;11.228;2023-02-17T13:04:52;6.63;;;3.47;;
12719;SDS011;6424;48.520;11.228;2023-02-17T13:13:10;8.30;;;4.67;;
12719;SDS011;6424;48.520;11.228;2023-02-17T13:16:06;8.03;;;4.40;;
12719;SDS011;6424;48.520;11.228;2023-02-17T13:18:50;6.33;;;4.10;;
12719;SDS011;6424;48.520;11.228;2023-02-17T13:21:31;7.93;;;4.90;;
12719;SDS011;6424;48.520;11.228;2023-02-17T13:24:14;7.90;;;4.17;;
12719;SDS011;6424;48.520;11.228;2023-02-17T13:35:47;7.40;;;4.63;;
12719;SDS011;6424;48.520;11.228;2023-02-17T13:38:29;5.73;;;4.43;;
12719;SDS011;6424;48.520;11.228;2023-02-17T13:41:11;7.67;;;4.67;;
12719;SDS011;6424;48.520;11.228;2023-02-17T13:43:53;7.13;;;3.60;;
12719;SDS011;6424;48.520;11.228;2023-02-17T13:46:23;4.13;;;3.50;;
12719;SDS011;6424;48.520;11.228;2023-02-17T13:49:22;6.00;;;3.80;;
12719;SDS011;6424;48.520;11.228;2023-02-17T13:52:17;8.53;;;4.00;;
12719;SDS011;6424;48.520;11.228;2023-02-17T13:55:02;5.03;;;3.93;;
12719;SDS011;6424;48.520;11.228;2023-02-17T13:57:35;5.17;;;4.30;;
12719;SDS011;6424;48.520;11.228;2023-02-17T14:00:21;6.20;;;4.77;;
12719;SDS011;6424;48.520;11.228;2023-02-17T14:05:58;4.17;;;3.20;;
12719;SDS011;6424;48.520;11.228;2023-02-17T14:08:41;6.73;;;3.83;;
12719;SDS011;6424;48.520;11.228;2023-02-17T14:11:23;4.30;;;3.37;;
12719;SDS011;6424;48.520;11.228;2023-02-17T14:14:06;5.80;;;3.40;;
12719;SDS011;6424;48.520;11.228;2023-02-17T14:16:33;7.60;;;3.70;;
12719;SDS011;6424;48.520;11.228;2023-02-17T14:19:17;7.27;;;4.00;;
12719;SDS011;6424;48.520;11.228;2023-02-17T14:22:03;4.27;;;3.43;;
12719;SDS011;6424;48.520;11.228;2023-02-17T14:24:45;6.23;;;3.77;;
12719;SDS011;6424;48.520;11.228;2023-02-17T14:27:42;5.53;;;3.33;;
12719;SDS011;6424;48.520;11.228;2023-02-17T14:30:32;4.30;;;3.07;;
12719;SDS011;6424;48.520;11.228;2023-02-17T14:33:21;4.60;;;3.33;;
12719;SDS011;6424;48.520;11.228;2023-02-17T14:36:04;4.60;;;3.07;;
12719;SDS011;6424;48.520;11.228;2023-02-17T14:38:52;3.97;;;2.67;;
12719;SDS011;6424;48.520;11.228;2023-02-17T14:41:35;4.20;;;2.53;;
12719;SDS011;6424;48.520;11.228;2023-02-17T14:44:15;5.40;;;2.67;;
12719;SDS011;6424;48.520;11.228;2023-02-17T14:46:56;3.37;;;2.60;;
12719;SDS011;6424;48.520;11.228;2023-02-17T14:49:37;6.40;;;2.80;;
12719;SDS011;6424;48.520;11.228;2023-02-17T14:52:19;3.27;;;2.20;;
12719;SDS011;6424;48.520;11.228;2023-02-17T14:55:01;4.40;;;2.63;;
12719;SDS011;6424;48.520;11.228;2023-02-17T14:57:42;5.53;;;2.50;;
12719;SDS011;6424;48.520;11.228;2023-02-17T15:00:24;3.87;;;2.50;;
12719;SDS011;6424;48.520;11.228;2023-02-17T15:03:05;5.43;;;2.43;;
12719;SDS011;6424;48.520;11.228;2023-02-17T15:05:45;5.73;;;3.70;;
12719;SDS011;6424;48.520;11.228;2023-02-17T15:08:32;3.07;;;2.77;;
12719;SDS011;6424;48.520;11.228;2023-02-17T15:11:15;4.37;;;2.67;;
12719;SDS011;6424;48.520;11.228;2023-02-17T15:14:15;4.50;;;2.63;;
12719;SDS011;6424;48.520;11.228;2023-02-17T15:16:57;5.83;;;3.33;;
12719;SDS011;6424;48.520;11.228;2023-02-17T15:19:38;6.47;;;3.50;;
12719;SDS011;6424;48.520;11.228;2023-02-17T15:22:19;5.30;;;3.73;;
12719;SDS011;6424;48.520;11.228;2023-02-17T15:24:59;4.43;;;2.90;;
12719;SDS011;6424;48.520;11.228;2023-02-17T15:27:40;5.53;;;3.57;;
12719;SDS011;6424;48.520;11.228;2023-02-17T15:30:10;7.23;;;3.40;;
12719;SDS011;6424;48.520;11.228;2023-02-17T15:32:52;3.93;;;2.63;;
12719;SDS011;6424;48.520;11.228;2023-02-17T15:35:33;4.70;;;3.10;;
12719;SDS011;6424;48.520;11.228;2023-02-17T15:37:58;8.03;;;3.17;;
12719;SDS011;6424;48.520;11.228;2023-02-17T15:40:39;3.57;;;2.70;;
12719;SDS011;6424;48.520;11.228;2023-02-17T15:43:21;6.33;;;2.70;;
12719;SDS011;6424;48.520;11.228;2023-02-17T15:46:03;5.47;;;2.70;;
12719;SDS011;6424;48.520;11.228;2023-02-17T15:48:36;5.30;;;2.97;;
12719;SDS011;6424;48.520;11.228;2023-02-17T15:51:18;10.70;;;3.23;;
12719;SDS011;6424;48.520;11.228;2023-02-17T15:53:59;5.27;;;2.60;;
12719;SDS011;6424;48.520;11.228;2023-02-17T15:56:41;7.03;;;3.10;;
12719;SDS011;6424;48.520;11.228;2023-02-17T15:59:24;4.73;;;2.50;;
12719;SDS011;6424;48.520;11.228;2023-02-17T16:02:15;3.47;;;2.83;;
12719;SDS011;6424;48.520;11.228;2023-02-17T16:04:43;3.07;;;2.50;;
12719;SDS011;6424;48.520;11.228;2023-02-17T16:07:24;4.20;;;3.13;;
12719;SDS011;6424;48.520;11.228;2023-02-17T16:09:50;5.43;;;3.00;;
12719;SDS011;6424;48.520;11.228;2023-02-17T16:12:30;3.90;;;3.00;;
12719;SDS011;6424;48.520;11.228;2023-02-17T16:15:16;5.67;;;3.87;;
12719;SDS011;6424;48.520;11.228;2023-02-17T16:17:58;4.43;;;3.33;;
12719;SDS011;6424;48.520;11.228;2023-02-17T16:20:39;6.20;;;4.37;;
12719;SDS011;6424;48.520;11.228;2023-02-17T16:23:20;5.80;;;3.60;;
12719;SDS011;6424;48.520;11.228;2023-02-17T16:25:46;4.27;;;3.17;;
12719;SDS011;6424;48.520;11.228;2023-02-17T16:28:27;6.27;;;3.23;;
12719;SDS011;6424;48.520;11.228;2023-02-17T16:31:10;4.40;;;3.37;;
12719;SDS011;6424;48.520;11.228;2023-02-17T16:33:51;5.83;;;3.03;;
12719;SDS011;6424;48.520;11.228;2023-02-17T16:36:38;5.47;;;3.20;;
12719;SDS011;6424;48.520;11.228;2023-02-17T16:39:19;4.93;;;3.30;;
12719;SDS011;6424;48.520;11.228;2023-02-17T16:42:00;5.17;;;3.70;;
12719;SDS011;6424;48.520;11.228;2023-02-17T16:44:41;6.13;;;3.30;;
12719;SDS011;6424;48.520;11.228;2023-02-17T16:47:23;7.27;;;3.20;;
12719;SDS011;6424;48.520;11.228;2023-02-17T16:49:49;10.90;;;3.33;;
12719;SDS011;6424;48.520;11.228;2023-02-17T16:52:30;6.77;;;3.37;;
12719;SDS011;6424;48.520;11.228;2023-02-17T16:54:56;5.23;;;2.90;;
12719;SDS011;6424;48.520;11.228;2023-02-17T16:57:37;5.40;;;3.23;;
12719;SDS011;6424;48.520;11.228;2023-02-17T17:00:19;5.23;;;3.50;;
12719;SDS011;6424;48.520;11.228;2023-02-17T17:03:02;4.30;;;2.93;;
12719;SDS011;6424;48.520;11.228;2023-02-17T17:05:28;5.93;;;3.07;;
12719;SDS011;6424;48.520;11.228;2023-02-17T17:08:10;4.63;;;3.10;;
12719;SDS011;6424;48.520;11.228;2023-02-17T17:10:53;4.33;;;3.30;;
12719;SDS011;6424;48.520;11.228;2023-02-17T17:13:34;5.07;;;3.20;;
12719;SDS011;6424;48.520;11.228;2023-02-17T17:16:17;3.97;;;3.30;;
12719;SDS011;6424;48.520;11.228;2023-02-17T17:19:05;4.73;;;3.03;;
12719;SDS011;6424;48.520;11.228;2023-02-17T17:21:46;3.87;;;3.03;;
12719;SDS011;6424;48.520;11.228;2023-02-17T17:24:28;5.30;;;3.00;;
12719;SDS011;6424;48.520;11.228;2023-02-17T17:27:09;5.93;;;3.03;;
12719;SDS011;6424;48.520;11.228;2023-02-17T17:29:50;6.20;;;3.07;;
12719;SDS011;6424;48.520;11.228;2023-02-17T17:32:31;4.47;;;2.90;;
12719;SDS011;6424;48.520;11.228;2023-02-17T17:35:12;6.63;;;3.00;;
12719;SDS011;6424;48.520;11.228;2023-02-17T17:37:53;5.13;;;3.27;;
12719;SDS011;6424;48.520;11.228;2023-02-17T17:40:34;4.63;;;3.20;;
12719;SDS011;6424;48.520;11.228;2023-02-17T17:43:27;5.87;;;3.57;;
12719;SDS011;6424;48.520;11.228;2023-02-17T17:46:18;3.80;;;2.93;;
12719;SDS011;6424;48.520;11.228;2023-02-17T17:49:01;4.87;;;3.83;;
12719;SDS011;6424;48.520;11.228;2023-02-17T17:51:43;5.47;;;3.53;;
12719;SDS011;6424;48.520;11.228;2023-02-17T17:54:24;4.90;;;3.57;;
12719;SDS011;6424;48.520;11.228;2023-02-17T17:57:05;5.70;;;2.90;;
12719;SDS011;6424;48.520;11.228;2023-02-17T17:59:46;6.37;;;4.13;;
12719;SDS011;6424;48.520;11.228;2023-02-17T18:02:27;4.33;;;2.80;;
12719;SDS011;6424;48.520;11.228;2023-02-17T18:05:07;4.10;;;3.03;;
12719;SDS011;6424;48.520;11.228;2023-02-17T18:07:48;5.90;;;3.23;;
12719;SDS011;6424;48.520;11.228;2023-02-17T18:10:30;5.63;;;3.30;;